createdAt,value
2023-05-20T00:02:44.916Z,7.97
2023-05-20T00:06:27.694Z,6.67
2023-05-20T00:10:11.143Z,8.17
2023-05-20T00:13:53.814Z,6.97
2023-05-20T00:17:37.914Z,7.47
2023-05-20T00:21:20.703Z,6.67
2023-05-20T00:25:03.394Z,6.53
2023-05-20T00:28:48.014Z,6.07
2023-05-20T00:32:31.002Z,8.77
2023-05-20T00:36:15.250Z,5.83
2023-05-20T00:39:57.956Z,6.53
2023-05-20T00:43:41.369Z,6.77
2023-05-20T00:47:27.610Z,6.63
2023-05-20T00:51:11.301Z,6.23
2023-05-20T00:54:55.491Z,8.07
2023-05-20T00:58:38.933Z,6.57
2023-05-20T01:02:21.787Z,6.27
2023-05-20T01:06:04.797Z,8.10
2023-05-20T01:09:48.115Z,6.33
2023-05-20T01:13:34.957Z,6.43
2023-05-20T01:17:21.082Z,7.03
2023-05-20T01:21:04.859Z,7.53
2023-05-20T01:24:49.364Z,6.77
2023-05-20T01:28:32.117Z,9.30
2023-05-20T01:32:20.813Z,8.13
2023-05-20T01:36:03.644Z,6.93
2023-05-20T01:39:48.342Z,7.20
2023-05-20T01:43:32.574Z,9.20
2023-05-20T01:47:15.316Z,8.60
2023-05-20T01:50:58.032Z,7.90
2023-05-20T01:54:40.709Z,7.33
2023-05-20T01:58:23.425Z,6.77
2023-05-20T02:02:07.608Z,7.73
2023-05-20T02:05:50.504Z,9.53
2023-05-20T02:09:33.249Z,9.53
2023-05-20T02:13:15.933Z,8.17
2023-05-20T02:16:58.699Z,9.23
2023-05-20T02:20:42.844Z,8.93
2023-05-20T02:24:25.811Z,8.93
2023-05-20T02:28:10.726Z,12.30
2023-05-20T02:31:53.552Z,8.70
2023-05-20T02:35:36.608Z,9.10
2023-05-20T02:39:20.730Z,9.43
2023-05-20T02:43:04.222Z,8.53
2023-05-20T02:46:46.975Z,11.37
2023-05-20T02:50:29.615Z,11.70
2023-05-20T02:54:12.479Z,12.03
2023-05-20T02:57:56.799Z,12.83
2023-05-20T03:01:40.495Z,10.50
2023-05-20T03:05:23.468Z,13.70
2023-05-20T03:09:06.257Z,15.03
2023-05-20T03:12:49.050Z,15.13
2023-05-20T03:16:35.502Z,15.50
2023-05-20T03:20:18.727Z,18.87
2023-05-20T03:24:01.464Z,18.47
2023-05-20T03:27:44.788Z,23.50
2023-05-20T03:31:27.551Z,21.70
2023-05-20T03:35:11.848Z,23.70
2023-05-20T03:38:54.613Z,22.30
2023-05-20T03:42:37.410Z,26.83
2023-05-20T03:46:20.125Z,21.77
2023-05-20T03:50:02.895Z,23.63
2023-05-20T03:53:46.919Z,23.67
2023-05-20T03:57:30.449Z,22.57
2023-05-20T04:01:14.332Z,21.40
2023-05-20T04:04:57.856Z,22.23
2023-05-20T04:08:40.793Z,21.87
2023-05-20T04:12:26.084Z,22.77
2023-05-20T04:16:09.007Z,22.67
2023-05-20T04:19:51.875Z,20.27
2023-05-20T04:23:34.565Z,24.23
2023-05-20T04:27:17.334Z,20.67
2023-05-20T04:31:02.777Z,23.33
2023-05-20T04:34:46.109Z,25.60
2023-05-20T04:38:30.134Z,21.37
2023-05-20T04:42:13.510Z,23.33
2023-05-20T04:45:56.258Z,23.23
2023-05-20T04:49:40.405Z,26.70
2023-05-20T04:53:23.404Z,26.03
2023-05-20T04:57:06.454Z,23.50
2023-05-20T05:00:49.229Z,24.37
2023-05-20T05:04:32.025Z,23.07
2023-05-20T05:08:17.271Z,24.27
2023-05-20T05:12:00.000Z,20.97
2023-05-20T05:15:42.745Z,22.07
2023-05-20T05:19:25.713Z,23.33
2023-05-20T05:23:08.771Z,22.63
2023-05-20T05:26:56.186Z,21.13
2023-05-20T05:30:38.965Z,22.70
2023-05-20T05:34:21.684Z,23.87
2023-05-20T05:38:04.416Z,18.40
2023-05-20T05:41:47.142Z,22.47
2023-05-20T05:45:31.398Z,21.40
2023-05-20T05:49:14.283Z,21.33
2023-05-20T05:52:57.014Z,21.37
2023-05-20T05:56:39.861Z,26.70
2023-05-20T06:00:22.735Z,21.63
2023-05-20T06:04:07.100Z,22.33
2023-05-20T06:07:49.851Z,20.40
2023-05-20T06:11:32.555Z,22.70
2023-05-20T06:15:15.315Z,18.40
2023-05-20T06:18:59.205Z,20.80
2023-05-20T06:22:44.335Z,24.30
2023-05-20T06:26:27.041Z,20.87
2023-05-20T06:30:10.397Z,19.77
2023-05-20T06:33:53.093Z,19.60
2023-05-20T06:37:35.796Z,19.20
2023-05-20T06:41:20.150Z,20.03
2023-05-20T06:45:07.081Z,18.93
2023-05-20T06:48:49.788Z,19.50
2023-05-20T06:52:33.820Z,19.97
2023-05-20T06:56:16.691Z,20.97
2023-05-20T07:00:00.780Z,24.83
2023-05-20T07:03:44.353Z,24.90
2023-05-20T07:07:27.180Z,22.00
2023-05-20T07:11:10.036Z,21.30
2023-05-20T07:14:52.735Z,20.03
2023-05-20T07:18:37.011Z,22.47
2023-05-20T07:22:19.925Z,20.40
2023-05-20T07:26:02.680Z,20.30
2023-05-20T07:29:45.643Z,22.30
2023-05-20T07:33:29.648Z,24.10
2023-05-20T07:37:13.761Z,20.40
2023-05-20T07:40:56.516Z,20.03
2023-05-20T07:44:40.103Z,24.60
2023-05-20T07:48:22.916Z,23.37
2023-05-20T07:52:06.462Z,22.73
2023-05-20T07:55:50.666Z,18.87
2023-05-20T07:59:33.419Z,19.90
2023-05-20T08:03:16.205Z,19.40
2023-05-20T08:06:59.029Z,20.83
2023-05-20T08:10:43.951Z,19.23
2023-05-20T08:14:28.050Z,17.13
2023-05-20T08:18:11.011Z,18.47
2023-05-20T08:21:54.410Z,16.87
2023-05-20T08:25:38.173Z,16.83
2023-05-20T08:29:20.901Z,17.00
2023-05-20T08:33:05.145Z,16.43
2023-05-20T08:36:47.933Z,15.40
2023-05-20T08:40:30.691Z,15.47
2023-05-20T08:44:13.659Z,14.37
2023-05-20T08:47:56.438Z,16.10
2023-05-20T08:51:42.922Z,14.63
2023-05-20T08:55:27.024Z,13.80
2023-05-20T08:59:10.257Z,12.77
2023-05-20T09:02:53.295Z,12.17
2023-05-20T09:06:45.416Z,15.23
2023-05-20T09:10:28.142Z,31.73
2023-05-20T09:14:10.865Z,23.20
2023-05-20T09:17:53.675Z,23.10
2023-05-20T09:21:37.385Z,17.87
2023-05-20T09:25:34.303Z,12.47
2023-05-20T09:29:17.240Z,14.73
2023-05-20T09:33:01.438Z,11.77
2023-05-20T09:36:45.394Z,14.67
2023-05-20T09:40:31.366Z,9.53
2023-05-20T09:44:16.325Z,8.93
2023-05-20T09:47:59.161Z,9.37
2023-05-20T09:51:43.157Z,9.90
2023-05-20T09:55:26.481Z,9.23
2023-05-20T09:59:11.898Z,8.83
2023-05-20T10:02:55.033Z,8.00
2023-05-20T10:07:06.570Z,7.65
2023-05-20T10:10:53.463Z,6.97
2023-05-20T10:14:49.246Z,5.80
2023-05-20T10:18:41.545Z,5.53
2023-05-20T10:22:29.095Z,6.57
2023-05-20T10:26:11.903Z,6.65
2023-05-20T10:29:57.128Z,5.47
2023-05-20T10:33:44.088Z,6.20
2023-05-20T10:37:29.060Z,6.55
2023-05-20T10:41:12.132Z,6.37
2023-05-20T10:44:56.251Z,6.23
2023-05-20T10:48:43.992Z,5.90
2023-05-20T10:52:27.019Z,10.77
2023-05-20T10:56:22.976Z,6.90
2023-05-20T11:00:06.692Z,6.22
2023-05-20T11:03:50.699Z,4.57
2023-05-20T11:07:34.182Z,4.07
2023-05-20T11:11:17.207Z,3.33
2023-05-20T11:15:04.784Z,4.63
2023-05-20T11:18:49.803Z,3.92
2023-05-20T11:22:32.633Z,5.18
2023-05-20T11:26:15.517Z,4.13
2023-05-20T11:29:58.394Z,4.00
2023-05-20T11:33:44.738Z,6.30
2023-05-20T11:37:30.144Z,3.83
2023-05-20T11:41:12.811Z,5.35
2023-05-20T11:45:01.448Z,3.97
2023-05-20T11:48:54.512Z,4.10
2023-05-20T11:52:37.268Z,5.10
2023-05-20T11:56:20.026Z,6.18
2023-05-20T12:00:02.893Z,5.30
2023-05-20T12:03:45.803Z,4.60
2023-05-20T12:07:29.959Z,3.75
2023-05-20T12:11:12.676Z,9.00
2023-05-20T12:14:55.435Z,4.63
2023-05-20T12:18:38.069Z,4.93
2023-05-20T12:22:20.868Z,5.80
2023-05-20T12:26:05.663Z,4.80
2023-05-20T12:29:48.377Z,6.28
2023-05-20T12:33:31.050Z,6.13
2023-05-20T12:37:13.820Z,5.38
2023-05-20T12:40:56.639Z,4.43
2023-05-20T12:44:40.684Z,4.47
2023-05-20T12:48:23.419Z,3.90
2023-05-20T12:52:11.924Z,4.72
2023-05-20T12:56:01.828Z,5.63
2023-05-20T12:59:46.016Z,7.32
2023-05-20T13:03:28.697Z,5.30
2023-05-20T13:07:11.387Z,8.25
2023-05-20T13:10:54.210Z,4.32
2023-05-20T13:14:37.418Z,5.00
2023-05-20T13:18:21.528Z,7.10
2023-05-20T13:22:04.266Z,8.60
2023-05-20T13:25:46.950Z,6.97
2023-05-20T13:29:29.713Z,8.30
2023-05-20T13:33:12.431Z,7.20
2023-05-20T13:36:56.565Z,8.00
2023-05-20T13:40:39.292Z,6.88
2023-05-20T13:44:22.109Z,6.20
2023-05-20T13:48:05.712Z,8.05
2023-05-20T13:51:48.465Z,9.15
2023-05-20T13:55:32.832Z,9.93
2023-05-20T13:59:15.569Z,8.27
2023-05-20T14:03:00.510Z,8.95
2023-05-20T14:06:43.212Z,8.20
2023-05-20T14:10:25.925Z,9.88
2023-05-20T14:14:10.201Z,12.48
2023-05-20T14:17:52.916Z,8.95
2023-05-20T14:21:35.648Z,9.35
2023-05-20T14:25:18.367Z,8.93
2023-05-20T14:29:01.193Z,7.47
2023-05-20T14:32:45.438Z,10.90
2023-05-20T14:36:28.098Z,9.75
2023-05-20T14:40:14.116Z,9.77
2023-05-20T14:43:56.771Z,10.00
2023-05-20T14:47:40.058Z,9.77
2023-05-20T14:51:24.351Z,9.93
2023-05-20T14:55:09.200Z,8.85
2023-05-20T14:58:51.874Z,11.18
2023-05-20T15:02:34.686Z,8.98
2023-05-20T15:06:17.452Z,9.48
2023-05-20T15:10:01.924Z,10.52
2023-05-20T15:13:46.375Z,11.77
2023-05-20T15:17:29.182Z,14.38
2023-05-20T15:21:11.981Z,12.73
2023-05-20T15:24:54.625Z,7.93
2023-05-20T15:28:38.629Z,15.18
2023-05-20T15:32:21.409Z,17.15
2023-05-20T15:36:04.563Z,9.60
2023-05-20T15:39:47.234Z,13.32
2023-05-20T15:43:29.966Z,11.77
2023-05-20T15:47:14.084Z,17.67
2023-05-20T15:50:56.862Z,8.77
2023-05-20T15:54:39.608Z,9.57
2023-05-20T15:58:22.307Z,13.38
2023-05-20T16:02:05.168Z,11.23
2023-05-20T16:05:49.206Z,9.30
2023-05-20T16:09:31.837Z,9.65
2023-05-20T16:13:14.560Z,9.30
2023-05-20T16:16:57.253Z,11.25
2023-05-20T16:20:39.914Z,10.90
2023-05-20T16:24:24.041Z,13.90
2023-05-20T16:28:06.711Z,8.98
2023-05-20T16:31:49.430Z,19.05
2023-05-20T16:35:32.110Z,13.73
2023-05-20T16:39:14.925Z,16.63
2023-05-20T16:42:58.960Z,22.73
2023-05-20T16:46:41.701Z,24.50
2023-05-20T16:50:24.685Z,15.00
2023-05-20T16:54:08.346Z,14.95
2023-05-20T16:57:51.126Z,11.65
2023-05-20T17:01:35.384Z,18.45
2023-05-20T17:05:18.360Z,11.85
2023-05-20T17:09:02.822Z,14.10
2023-05-20T17:12:45.770Z,12.70
2023-05-20T17:16:28.618Z,13.80
2023-05-20T17:20:13.780Z,15.68
2023-05-20T17:23:56.525Z,28.95
2023-05-20T17:27:41.903Z,12.48
2023-05-20T17:31:24.581Z,19.00
2023-05-20T17:35:08.086Z,68.90
2023-05-20T17:38:52.471Z,23.65
2023-05-20T17:42:35.185Z,11.35
2023-05-20T17:46:17.892Z,13.02
2023-05-20T17:50:02.570Z,16.30
2023-05-20T17:53:45.706Z,48.08
2023-05-20T17:57:29.807Z,11.20
2023-05-20T18:01:12.516Z,11.10
2023-05-20T18:04:55.225Z,17.60
2023-05-20T18:08:37.871Z,17.02
2023-05-20T18:12:20.535Z,19.48
2023-05-20T18:16:05.054Z,71.07
2023-05-20T18:19:47.855Z,23.73
2023-05-20T18:23:30.662Z,34.58
2023-05-20T18:27:13.431Z,11.88
2023-05-20T18:30:57.504Z,10.10
2023-05-20T18:34:41.588Z,15.38
2023-05-20T18:38:24.662Z,46.53
2023-05-20T18:42:08.206Z,43.95
2023-05-20T18:45:52.357Z,19.63
2023-05-20T18:49:35.115Z,33.67
2023-05-20T18:53:19.269Z,51.25
2023-05-20T18:57:04.024Z,15.77
2023-05-20T19:00:46.892Z,16.85
2023-05-20T19:04:29.698Z,18.23
2023-05-20T19:08:12.477Z,15.43
2023-05-20T19:11:58.994Z,13.23
2023-05-20T19:15:41.952Z,13.10
2023-05-20T19:19:24.713Z,20.63
2023-05-20T19:23:07.490Z,13.82
2023-05-20T19:26:50.247Z,20.05
2023-05-20T19:30:34.359Z,19.95
2023-05-20T19:34:17.229Z,18.33
2023-05-20T19:38:00.150Z,14.65
2023-05-20T19:41:42.903Z,35.88
2023-05-20T19:45:25.879Z,20.58
2023-05-20T19:49:10.060Z,15.27
2023-05-20T19:52:52.808Z,14.63
2023-05-20T19:56:35.561Z,13.48
2023-05-20T20:00:18.861Z,12.25
2023-05-20T20:04:04.481Z,11.57
2023-05-20T20:07:49.523Z,13.50
2023-05-20T20:11:32.232Z,13.25
2023-05-20T20:15:15.389Z,12.70
2023-05-20T20:18:58.190Z,15.02
2023-05-20T20:22:41.289Z,14.73
2023-05-20T20:26:26.646Z,12.57
2023-05-20T20:30:10.646Z,14.15
2023-05-20T20:33:53.481Z,15.80
2023-05-20T20:37:37.756Z,15.38
2023-05-20T20:41:23.146Z,13.50
2023-05-20T20:45:12.302Z,15.35
2023-05-20T20:48:55.236Z,13.73
2023-05-20T20:52:38.634Z,17.63
2023-05-20T20:56:21.355Z,15.15
2023-05-20T21:00:13.553Z,15.32
2023-05-20T21:03:58.617Z,17.17
2023-05-20T21:07:42.646Z,14.93
2023-05-20T21:11:26.072Z,16.03
2023-05-20T21:15:12.409Z,15.70
2023-05-20T21:18:55.133Z,13.63
2023-05-20T21:22:39.307Z,18.67
2023-05-20T21:26:22.325Z,13.53
2023-05-20T21:30:05.599Z,11.97
2023-05-20T21:33:48.355Z,12.50
2023-05-20T21:37:31.184Z,14.33
2023-05-20T21:41:16.614Z,15.63
2023-05-20T21:44:59.612Z,15.87
2023-05-20T21:48:44.028Z,15.93
2023-05-20T21:52:26.864Z,29.80
2023-05-20T21:56:09.653Z,16.50
2023-05-20T21:59:53.695Z,14.03
2023-05-20T22:03:36.885Z,17.20
2023-05-20T22:07:19.723Z,16.57
2023-05-20T22:11:05.473Z,15.33
2023-05-20T22:14:48.463Z,21.27
2023-05-20T22:18:32.678Z,17.90
2023-05-20T22:22:15.441Z,18.90
2023-05-20T22:25:58.233Z,16.03
2023-05-20T22:29:41.264Z,14.03
2023-05-20T22:33:24.392Z,18.90
2023-05-20T22:37:09.466Z,12.60
2023-05-20T22:40:52.294Z,11.47
2023-05-20T22:44:37.967Z,16.27
2023-05-20T22:48:22.912Z,15.40
2023-05-20T22:52:07.713Z,13.15
2023-05-20T22:55:51.879Z,15.00
2023-05-20T22:59:36.576Z,12.73
2023-05-20T23:03:19.386Z,14.43
2023-05-20T23:07:02.108Z,17.37
2023-05-20T23:10:44.806Z,14.87
2023-05-20T23:14:28.900Z,16.13
2023-05-20T23:18:12.217Z,15.20
2023-05-20T23:21:54.993Z,16.23
2023-05-20T23:25:37.852Z,14.97
2023-05-20T23:29:21.445Z,15.93
2023-05-20T23:33:05.653Z,13.90
2023-05-20T23:36:49.930Z,13.43
2023-05-20T23:40:32.648Z,14.90
2023-05-20T23:44:15.795Z,14.43
2023-05-20T23:48:03.450Z,12.90
2023-05-20T23:51:47.549Z,15.97
2023-05-20T23:55:30.300Z,12.30
2023-05-20T23:59:13.107Z,13.50
